Afyon, Turkey
Current Conditions -  °F | °C
As of 11:50 PM on Sunday 23 Nov 2014 (Local Time) from LTFC Reporting Station
Few Clouds Few Clouds  
Wind Chill: 36°   Ceiling: Unl
Heat Index: 41°   Visibility: 6mi
Dew Point: 32°   Wind: 7mph
Humidity: 70%   Direction: 350°N
Pressure: 30.09"   Gusts: NA
Location:  38.76°N, 30.54°E
Report Text: LTFC 232050Z 35006KT 9999 FEW040 05/00 Q1019
Loading
Personal Weather Stations






























Interactive Weather Map New forecast layout! Learn more

10-Day Weather Forecast

Advertisements
Track Severe Weather on mobile